sensor_id;sensor_type;location;lat;lon;timestamp;temperature;humidity
14993;DHT22;7592;51.088;13.732;2023-06-24T00:01:29;17.50;99.90
14993;DHT22;7592;51.088;13.732;2023-06-24T00:06:23;17.40;99.90
14993;DHT22;7592;51.088;13.732;2023-06-24T00:11:18;17.40;99.90
14993;DHT22;7592;51.088;13.732;2023-06-24T00:16:11;17.40;99.90
14993;DHT22;7592;51.088;13.732;2023-06-24T00:21:04;17.50;99.90
14993;DHT22;7592;51.088;13.732;2023-06-24T00:25:57;17.50;99.90
14993;DHT22;7592;51.088;13.732;2023-06-24T00:30:49;17.50;99.90
14993;DHT22;7592;51.088;13.732;2023-06-24T00:35:44;17.50;99.90
14993;DHT22;7592;51.088;13.732;2023-06-24T00:40:37;17.40;99.90
14993;DHT22;7592;51.088;13.732;2023-06-24T00:45:29;17.40;99.90
14993;DHT22;7592;51.088;13.732;2023-06-24T00:50:22;17.40;99.90
14993;DHT22;7592;51.088;13.732;2023-06-24T00:55:18;17.40;99.90
14993;DHT22;7592;51.088;13.732;2023-06-24T01:00:12;17.40;99.90
14993;DHT22;7592;51.088;13.732;2023-06-24T01:10:47;17.40;99.90
14993;DHT22;7592;51.088;13.732;2023-06-24T01:15:45;17.50;99.90
14993;DHT22;7592;51.088;13.732;2023-06-24T01:21:05;17.40;99.90
14993;DHT22;7592;51.088;13.732;2023-06-24T01:36:33;17.50;99.90
14993;DHT22;7592;51.088;13.732;2023-06-24T01:41:35;17.50;99.90
14993;DHT22;7592;51.088;13.732;2023-06-24T01:46:29;17.60;99.90
14993;DHT22;7592;51.088;13.732;2023-06-24T01:51:22;17.60;99.90
14993;DHT22;7592;51.088;13.732;2023-06-24T01:56:16;17.70;99.90
14993;DHT22;7592;51.088;13.732;2023-06-24T02:01:10;17.60;99.90
14993;DHT22;7592;51.088;13.732;2023-06-24T02:06:06;17.70;99.90
14993;DHT22;7592;51.088;13.732;2023-06-24T02:11:01;17.70;99.90
14993;DHT22;7592;51.088;13.732;2023-06-24T02:15:55;17.70;99.90
14993;DHT22;7592;51.088;13.732;2023-06-24T02:20:48;17.60;99.90
14993;DHT22;7592;51.088;13.732;2023-06-24T02:25:43;17.70;99.90
14993;DHT22;7592;51.088;13.732;2023-06-24T02:30:37;17.70;99.90
14993;DHT22;7592;51.088;13.732;2023-06-24T02:35:30;17.70;99.90
14993;DHT22;7592;51.088;13.732;2023-06-24T02:40:22;17.80;99.90
14993;DHT22;7592;51.088;13.732;2023-06-24T02:45:14;17.80;99.90
14993;DHT22;7592;51.088;13.732;2023-06-24T02:50:08;17.80;99.90
14993;DHT22;7592;51.088;13.732;2023-06-24T02:55:01;17.70;99.90
14993;DHT22;7592;51.088;13.732;2023-06-24T02:59:53;17.70;99.90
14993;DHT22;7592;51.088;13.732;2023-06-24T03:04:51;17.80;99.90
14993;DHT22;7592;51.088;13.732;2023-06-24T03:09:44;17.80;99.90
14993;DHT22;7592;51.088;13.732;2023-06-24T03:14:36;17.90;99.90
14993;DHT22;7592;51.088;13.732;2023-06-24T03:19:29;17.90;99.90
14993;DHT22;7592;51.088;13.732;2023-06-24T03:24:21;17.90;99.90
14993;DHT22;7592;51.088;13.732;2023-06-24T03:29:14;17.80;99.90
14993;DHT22;7592;51.088;13.732;2023-06-24T03:34:16;17.70;99.90
14993;DHT22;7592;51.088;13.732;2023-06-24T03:39:11;17.70;99.90
14993;DHT22;7592;51.088;13.732;2023-06-24T03:44:03;17.50;99.90
14993;DHT22;7592;51.088;13.732;2023-06-24T03:48:58;17.40;99.90
14993;DHT22;7592;51.088;13.732;2023-06-24T03:53:53;17.40;99.90
14993;DHT22;7592;51.088;13.732;2023-06-24T03:58:45;17.60;99.90
14993;DHT22;7592;51.088;13.732;2023-06-24T04:03:37;17.80;99.90
14993;DHT22;7592;51.088;13.732;2023-06-24T04:08:29;18.10;99.90
14993;DHT22;7592;51.088;13.732;2023-06-24T04:13:22;18.50;99.90
14993;DHT22;7592;51.088;13.732;2023-06-24T04:18:14;18.80;99.90
14993;DHT22;7592;51.088;13.732;2023-06-24T04:23:06;19.30;99.90
14993;DHT22;7592;51.088;13.732;2023-06-24T04:28:02;19.60;99.90
14993;DHT22;7592;51.088;13.732;2023-06-24T04:32:54;21.10;99.90
14993;DHT22;7592;51.088;13.732;2023-06-24T04:37:46;22.30;99.90
14993;DHT22;7592;51.088;13.732;2023-06-24T04:42:41;22.40;99.90
14993;DHT22;7592;51.088;13.732;2023-06-24T04:47:33;21.70;99.90
14993;DHT22;7592;51.088;13.732;2023-06-24T04:52:26;20.70;99.90
14993;DHT22;7592;51.088;13.732;2023-06-24T04:57:29;20.10;99.90
14993;DHT22;7592;51.088;13.732;2023-06-24T05:02:22;19.80;99.90
14993;DHT22;7592;51.088;13.732;2023-06-24T05:07:15;19.70;99.90
14993;DHT22;7592;51.088;13.732;2023-06-24T05:12:07;19.90;99.90
14993;DHT22;7592;51.088;13.732;2023-06-24T05:17:00;20.10;99.90
14993;DHT22;7592;51.088;13.732;2023-06-24T05:21:52;20.10;99.90
14993;DHT22;7592;51.088;13.732;2023-06-24T05:26:48;19.90;99.90
14993;DHT22;7592;51.088;13.732;2023-06-24T05:31:40;19.80;99.90
14993;DHT22;7592;51.088;13.732;2023-06-24T05:36:33;19.90;99.90
14993;DHT22;7592;51.088;13.732;2023-06-24T05:41:25;20.00;99.90
14993;DHT22;7592;51.088;13.732;2023-06-24T05:46:17;20.00;99.90
14993;DHT22;7592;51.088;13.732;2023-06-24T05:51:09;19.90;99.90
14993;DHT22;7592;51.088;13.732;2023-06-24T05:56:02;19.80;99.90
14993;DHT22;7592;51.088;13.732;2023-06-24T06:00:54;19.70;99.90
14993;DHT22;7592;51.088;13.732;2023-06-24T06:05:47;19.60;99.90
14993;DHT22;7592;51.088;13.732;2023-06-24T06:10:39;19.60;99.90
14993;DHT22;7592;51.088;13.732;2023-06-24T06:15:31;19.50;99.90
14993;DHT22;7592;51.088;13.732;2023-06-24T06:20:23;19.40;99.90
14993;DHT22;7592;51.088;13.732;2023-06-24T06:25:16;19.20;99.90
14993;DHT22;7592;51.088;13.732;2023-06-24T06:30:08;19.20;99.90
14993;DHT22;7592;51.088;13.732;2023-06-24T06:35:00;19.20;99.90
14993;DHT22;7592;51.088;13.732;2023-06-24T06:39:53;19.20;99.90
14993;DHT22;7592;51.088;13.732;2023-06-24T06:44:45;19.20;99.90
14993;DHT22;7592;51.088;13.732;2023-06-24T06:49:37;19.00;99.90
14993;DHT22;7592;51.088;13.732;2023-06-24T06:54:29;19.00;99.90
14993;DHT22;7592;51.088;13.732;2023-06-24T06:59:21;19.10;99.90
14993;DHT22;7592;51.088;13.732;2023-06-24T07:04:13;19.10;99.90
14993;DHT22;7592;51.088;13.732;2023-06-24T07:09:06;19.20;99.90
14993;DHT22;7592;51.088;13.732;2023-06-24T07:13:59;19.30;99.90
14993;DHT22;7592;51.088;13.732;2023-06-24T07:18:51;19.50;99.90
14993;DHT22;7592;51.088;13.732;2023-06-24T07:23:43;19.60;99.90
14993;DHT22;7592;51.088;13.732;2023-06-24T07:28:36;19.70;99.90
14993;DHT22;7592;51.088;13.732;2023-06-24T07:33:28;19.90;99.90
14993;DHT22;7592;51.088;13.732;2023-06-24T07:38:22;20.20;99.90
14993;DHT22;7592;51.088;13.732;2023-06-24T07:43:14;20.40;99.90
14993;DHT22;7592;51.088;13.732;2023-06-24T07:48:06;20.70;99.90
14993;DHT22;7592;51.088;13.732;2023-06-24T07:52:59;22.00;99.90
14993;DHT22;7592;51.088;13.732;2023-06-24T07:57:51;24.40;99.90
14993;DHT22;7592;51.088;13.732;2023-06-24T08:02:43;25.60;99.90
14993;DHT22;7592;51.088;13.732;2023-06-24T08:07:37;24.90;99.90
14993;DHT22;7592;51.088;13.732;2023-06-24T08:12:29;24.10;99.90
14993;DHT22;7592;51.088;13.732;2023-06-24T08:17:21;23.60;99.90
14993;DHT22;7592;51.088;13.732;2023-06-24T08:22:14;23.70;99.90
14993;DHT22;7592;51.088;13.732;2023-06-24T08:27:06;23.80;99.90
14993;DHT22;7592;51.088;13.732;2023-06-24T08:32:00;23.60;99.90
14993;DHT22;7592;51.088;13.732;2023-06-24T08:36:52;24.80;99.90
14993;DHT22;7592;51.088;13.732;2023-06-24T08:41:44;26.30;99.90
14993;DHT22;7592;51.088;13.732;2023-06-24T08:46:37;26.30;99.90
14993;DHT22;7592;51.088;13.732;2023-06-24T08:51:31;26.00;99.90
14993;DHT22;7592;51.088;13.732;2023-06-24T08:56:24;26.10;99.90
14993;DHT22;7592;51.088;13.732;2023-06-24T09:01:17;31.00;99.90
14993;DHT22;7592;51.088;13.732;2023-06-24T09:06:12;34.30;88.80
14993;DHT22;7592;51.088;13.732;2023-06-24T09:11:04;32.80;83.70
14993;DHT22;7592;51.088;13.732;2023-06-24T09:15:57;35.60;73.10
14993;DHT22;7592;51.088;13.732;2023-06-24T09:20:49;38.60;58.40
14993;DHT22;7592;51.088;13.732;2023-06-24T09:25:42;39.50;56.30
14993;DHT22;7592;51.088;13.732;2023-06-24T09:30:34;39.20;56.00
14993;DHT22;7592;51.088;13.732;2023-06-24T09:35:26;36.30;55.90
14993;DHT22;7592;51.088;13.732;2023-06-24T09:40:19;37.20;55.70
14993;DHT22;7592;51.088;13.732;2023-06-24T09:45:12;40.30;53.90
14993;DHT22;7592;51.088;13.732;2023-06-24T09:50:04;42.10;47.70
14993;DHT22;7592;51.088;13.732;2023-06-24T09:54:58;41.60;48.00
14993;DHT22;7592;51.088;13.732;2023-06-24T09:59:54;42.20;47.90
14993;DHT22;7592;51.088;13.732;2023-06-24T10:04:46;41.50;46.00
14993;DHT22;7592;51.088;13.732;2023-06-24T10:09:40;39.40;48.60
14993;DHT22;7592;51.088;13.732;2023-06-24T10:14:32;37.90;49.50
14993;DHT22;7592;51.088;13.732;2023-06-24T10:19:24;35.90;51.20
14993;DHT22;7592;51.088;13.732;2023-06-24T10:24:37;33.30;55.00
14993;DHT22;7592;51.088;13.732;2023-06-24T10:29:37;32.60;59.70
14993;DHT22;7592;51.088;13.732;2023-06-24T10:44:29;40.70;47.70
14993;DHT22;7592;51.088;13.732;2023-06-24T10:49:36;39.00;48.00
14993;DHT22;7592;51.088;13.732;2023-06-24T10:54:28;36.20;51.30
14993;DHT22;7592;51.088;13.732;2023-06-24T10:59:21;35.20;54.80
14993;DHT22;7592;51.088;13.732;2023-06-24T11:04:13;35.20;52.20
14993;DHT22;7592;51.088;13.732;2023-06-24T11:09:05;33.60;56.40
14993;DHT22;7592;51.088;13.732;2023-06-24T11:13:57;33.00;57.10
14993;DHT22;7592;51.088;13.732;2023-06-24T11:18:50;35.70;52.50
14993;DHT22;7592;51.088;13.732;2023-06-24T11:23:42;38.30;50.40
14993;DHT22;7592;51.088;13.732;2023-06-24T11:28:37;36.00;50.50
14993;DHT22;7592;51.088;13.732;2023-06-24T11:33:29;34.10;53.70
14993;DHT22;7592;51.088;13.732;2023-06-24T11:38:21;32.70;56.30
14993;DHT22;7592;51.088;13.732;2023-06-24T11:43:13;31.90;58.30
14993;DHT22;7592;51.088;13.732;2023-06-24T11:48:06;30.30;60.60
14993;DHT22;7592;51.088;13.732;2023-06-24T11:53:00;29.60;59.60
14993;DHT22;7592;51.088;13.732;2023-06-24T12:03:06;30.00;61.10
14993;DHT22;7592;51.088;13.732;2023-06-24T12:08:04;28.80;64.20
14993;DHT22;7592;51.088;13.732;2023-06-24T12:13:00;28.40;66.10
14993;DHT22;7592;51.088;13.732;2023-06-24T12:17:53;28.10;66.00
14993;DHT22;7592;51.088;13.732;2023-06-24T12:22:46;27.60;66.30
14993;DHT22;7592;51.088;13.732;2023-06-24T12:27:39;27.70;66.70
14993;DHT22;7592;51.088;13.732;2023-06-24T12:32:34;28.10;68.90
14993;DHT22;7592;51.088;13.732;2023-06-24T12:37:31;27.90;64.80
14993;DHT22;7592;51.088;13.732;2023-06-24T12:42:25;27.40;67.20
14993;DHT22;7592;51.088;13.732;2023-06-24T12:47:17;27.30;68.40
14993;DHT22;7592;51.088;13.732;2023-06-24T12:52:10;27.10;70.10
14993;DHT22;7592;51.088;13.732;2023-06-24T12:57:02;27.20;70.70
14993;DHT22;7592;51.088;13.732;2023-06-24T13:02:05;27.30;68.60
14993;DHT22;7592;51.088;13.732;2023-06-24T13:06:57;27.30;69.10
14993;DHT22;7592;51.088;13.732;2023-06-24T13:11:50;27.20;69.70
14993;DHT22;7592;51.088;13.732;2023-06-24T13:16:43;27.00;73.50
14993;DHT22;7592;51.088;13.732;2023-06-24T13:21:35;26.90;72.50
14993;DHT22;7592;51.088;13.732;2023-06-24T13:26:27;26.80;68.60
14993;DHT22;7592;51.088;13.732;2023-06-24T13:31:19;26.50;73.20
14993;DHT22;7592;51.088;13.732;2023-06-24T13:36:30;26.40;73.30
14993;DHT22;7592;51.088;13.732;2023-06-24T13:41:23;26.30;72.50
14993;DHT22;7592;51.088;13.732;2023-06-24T13:46:17;26.50;72.80
14993;DHT22;7592;51.088;13.732;2023-06-24T13:51:10;26.40;74.50
14993;DHT22;7592;51.088;13.732;2023-06-24T13:56:02;26.30;71.70
14993;DHT22;7592;51.088;13.732;2023-06-24T14:00:54;26.00;72.80
14993;DHT22;7592;51.088;13.732;2023-06-24T14:05:46;26.00;73.80
14993;DHT22;7592;51.088;13.732;2023-06-24T14:10:39;26.10;75.20
14993;DHT22;7592;51.088;13.732;2023-06-24T14:15:31;26.10;74.60
14993;DHT22;7592;51.088;13.732;2023-06-24T14:20:23;25.90;74.50
14993;DHT22;7592;51.088;13.732;2023-06-24T14:25:17;25.90;76.40
14993;DHT22;7592;51.088;13.732;2023-06-24T14:30:09;25.90;76.40
14993;DHT22;7592;51.088;13.732;2023-06-24T14:35:01;25.90;76.20
14993;DHT22;7592;51.088;13.732;2023-06-24T14:39:54;25.90;76.70
14993;DHT22;7592;51.088;13.732;2023-06-24T14:44:46;25.90;76.40
14993;DHT22;7592;51.088;13.732;2023-06-24T14:49:38;25.80;76.00
14993;DHT22;7592;51.088;13.732;2023-06-24T14:54:30;25.80;77.00
14993;DHT22;7592;51.088;13.732;2023-06-24T14:59:23;25.70;77.90
14993;DHT22;7592;51.088;13.732;2023-06-24T15:04:15;25.60;77.70
14993;DHT22;7592;51.088;13.732;2023-06-24T15:09:07;25.60;78.60
14993;DHT22;7592;51.088;13.732;2023-06-24T15:13:59;25.60;79.60
14993;DHT22;7592;51.088;13.732;2023-06-24T15:18:51;25.60;81.30
14993;DHT22;7592;51.088;13.732;2023-06-24T15:23:43;25.60;79.50
14993;DHT22;7592;51.088;13.732;2023-06-24T15:28:36;25.70;79.30
14993;DHT22;7592;51.088;13.732;2023-06-24T15:33:28;25.70;79.00
14993;DHT22;7592;51.088;13.732;2023-06-24T15:38:21;25.50;77.70
14993;DHT22;7592;51.088;13.732;2023-06-24T15:43:13;25.30;78.50
14993;DHT22;7592;51.088;13.732;2023-06-24T15:48:05;25.40;81.30
14993;DHT22;7592;51.088;13.732;2023-06-24T15:52:58;25.30;80.80
14993;DHT22;7592;51.088;13.732;2023-06-24T15:57:50;25.30;80.50
14993;DHT22;7592;51.088;13.732;2023-06-24T16:02:42;25.20;81.10
14993;DHT22;7592;51.088;13.732;2023-06-24T16:07:35;25.10;81.60
14993;DHT22;7592;51.088;13.732;2023-06-24T16:12:27;25.10;81.50
14993;DHT22;7592;51.088;13.732;2023-06-24T16:17:19;25.10;81.20
14993;DHT22;7592;51.088;13.732;2023-06-24T16:22:11;25.10;80.80
14993;DHT22;7592;51.088;13.732;2023-06-24T16:27:04;25.10;81.40
14993;DHT22;7592;51.088;13.732;2023-06-24T16:31:56;25.00;81.10
14993;DHT22;7592;51.088;13.732;2023-06-24T16:36:48;24.90;82.40
14993;DHT22;7592;51.088;13.732;2023-06-24T16:41:41;24.90;82.70
14993;DHT22;7592;51.088;13.732;2023-06-24T16:46:33;24.90;83.90
14993;DHT22;7592;51.088;13.732;2023-06-24T16:51:25;24.80;84.10
14993;DHT22;7592;51.088;13.732;2023-06-24T16:56:17;24.70;85.30
14993;DHT22;7592;51.088;13.732;2023-06-24T17:01:09;24.60;84.80
14993;DHT22;7592;51.088;13.732;2023-06-24T17:06:01;24.60;83.80
14993;DHT22;7592;51.088;13.732;2023-06-24T17:10:54;24.50;84.30
14993;DHT22;7592;51.088;13.732;2023-06-24T17:15:46;24.40;85.90
14993;DHT22;7592;51.088;13.732;2023-06-24T17:20:39;24.40;87.60
14993;DHT22;7592;51.088;13.732;2023-06-24T17:25:31;24.30;89.80
14993;DHT22;7592;51.088;13.732;2023-06-24T17:30:24;24.20;90.30
14993;DHT22;7592;51.088;13.732;2023-06-24T17:35:16;24.20;91.30
14993;DHT22;7592;51.088;13.732;2023-06-24T17:40:09;24.10;91.50
14993;DHT22;7592;51.088;13.732;2023-06-24T17:45:01;24.00;92.00
14993;DHT22;7592;51.088;13.732;2023-06-24T17:49:54;23.80;92.50
14993;DHT22;7592;51.088;13.732;2023-06-24T17:54:46;23.70;94.10
14993;DHT22;7592;51.088;13.732;2023-06-24T17:59:38;23.60;95.60
14993;DHT22;7592;51.088;13.732;2023-06-24T18:04:30;23.50;96.60
14993;DHT22;7592;51.088;13.732;2023-06-24T18:09:22;23.40;98.40
14993;DHT22;7592;51.088;13.732;2023-06-24T18:14:14;23.40;99.90
14993;DHT22;7592;51.088;13.732;2023-06-24T18:19:07;23.20;99.90
14993;DHT22;7592;51.088;13.732;2023-06-24T18:24:01;23.10;99.90
14993;DHT22;7592;51.088;13.732;2023-06-24T18:28:54;23.00;99.90
14993;DHT22;7592;51.088;13.732;2023-06-24T18:33:46;22.90;99.90
14993;DHT22;7592;51.088;13.732;2023-06-24T18:38:38;22.70;99.90
14993;DHT22;7592;51.088;13.732;2023-06-24T18:43:31;22.60;99.90
14993;DHT22;7592;51.088;13.732;2023-06-24T18:48:23;22.40;99.90
14993;DHT22;7592;51.088;13.732;2023-06-24T18:53:15;22.20;99.90
14993;DHT22;7592;51.088;13.732;2023-06-24T18:58:07;22.10;99.90
14993;DHT22;7592;51.088;13.732;2023-06-24T19:03:00;21.90;99.90
14993;DHT22;7592;51.088;13.732;2023-06-24T19:07:53;21.70;99.90
14993;DHT22;7592;51.088;13.732;2023-06-24T19:12:45;21.60;99.90
14993;DHT22;7592;51.088;13.732;2023-06-24T19:17:38;21.40;99.90
14993;DHT22;7592;51.088;13.732;2023-06-24T19:22:30;21.20;99.90
14993;DHT22;7592;51.088;13.732;2023-06-24T19:27:25;21.00;99.90
14993;DHT22;7592;51.088;13.732;2023-06-24T19:32:17;20.90;99.90
14993;DHT22;7592;51.088;13.732;2023-06-24T19:37:10;20.70;99.90
14993;DHT22;7592;51.088;13.732;2023-06-24T19:42:02;20.60;99.90
14993;DHT22;7592;51.088;13.732;2023-06-24T19:46:54;20.40;99.90
14993;DHT22;7592;51.088;13.732;2023-06-24T19:51:46;20.30;99.90
14993;DHT22;7592;51.088;13.732;2023-06-24T19:56:38;20.20;99.90
14993;DHT22;7592;51.088;13.732;2023-06-24T20:01:31;20.00;99.90
14993;DHT22;7592;51.088;13.732;2023-06-24T20:06:23;19.90;99.90
14993;DHT22;7592;51.088;13.732;2023-06-24T20:11:15;19.80;99.90
14993;DHT22;7592;51.088;13.732;2023-06-24T20:16:07;19.70;99.90
14993;DHT22;7592;51.088;13.732;2023-06-24T20:20:59;19.60;99.90
14993;DHT22;7592;51.088;13.732;2023-06-24T20:25:52;19.40;99.90
14993;DHT22;7592;51.088;13.732;2023-06-24T20:30:44;19.40;99.90
14993;DHT22;7592;51.088;13.732;2023-06-24T20:35:36;19.30;99.90
14993;DHT22;7592;51.088;13.732;2023-06-24T20:40:28;19.20;99.90
14993;DHT22;7592;51.088;13.732;2023-06-24T20:45:21;19.10;99.90
14993;DHT22;7592;51.088;13.732;2023-06-24T20:50:13;18.90;99.90
14993;DHT22;7592;51.088;13.732;2023-06-24T20:55:05;18.80;99.90
14993;DHT22;7592;51.088;13.732;2023-06-24T20:59:58;18.60;99.90
14993;DHT22;7592;51.088;13.732;2023-06-24T21:04:50;18.50;99.90
14993;DHT22;7592;51.088;13.732;2023-06-24T21:09:42;18.40;99.90
14993;DHT22;7592;51.088;13.732;2023-06-24T21:14:34;18.40;99.90
14993;DHT22;7592;51.088;13.732;2023-06-24T21:19:26;18.30;99.90
14993;DHT22;7592;51.088;13.732;2023-06-24T21:24:19;18.20;99.90
14993;DHT22;7592;51.088;13.732;2023-06-24T21:29:11;18.10;99.90
14993;DHT22;7592;51.088;13.732;2023-06-24T21:34:03;18.00;99.90
14993;DHT22;7592;51.088;13.732;2023-06-24T21:38:55;18.00;99.90
14993;DHT22;7592;51.088;13.732;2023-06-24T21:43:47;18.00;99.90
14993;DHT22;7592;51.088;13.732;2023-06-24T21:48:39;17.90;99.90
14993;DHT22;7592;51.088;13.732;2023-06-24T21:53:31;17.90;99.90
14993;DHT22;7592;51.088;13.732;2023-06-24T21:58:24;17.80;99.90
14993;DHT22;7592;51.088;13.732;2023-06-24T22:03:16;17.70;99.90
14993;DHT22;7592;51.088;13.732;2023-06-24T22:08:09;17.60;99.90
14993;DHT22;7592;51.088;13.732;2023-06-24T22:13:01;17.60;99.90
14993;DHT22;7592;51.088;13.732;2023-06-24T22:17:53;17.60;99.90
14993;DHT22;7592;51.088;13.732;2023-06-24T22:22:45;17.50;99.90
14993;DHT22;7592;51.088;13.732;2023-06-24T22:27:38;17.40;99.90
14993;DHT22;7592;51.088;13.732;2023-06-24T22:32:30;17.30;99.90
14993;DHT22;7592;51.088;13.732;2023-06-24T22:37:22;17.10;99.90
14993;DHT22;7592;51.088;13.732;2023-06-24T22:42:14;17.10;99.90
14993;DHT22;7592;51.088;13.732;2023-06-24T22:47:07;17.10;99.90
14993;DHT22;7592;51.088;13.732;2023-06-24T22:52:00;17.00;99.90
14993;DHT22;7592;51.088;13.732;2023-06-24T22:56:52;16.90;99.90
14993;DHT22;7592;51.088;13.732;2023-06-24T23:01:45;16.80;99.90
14993;DHT22;7592;51.088;13.732;2023-06-24T23:06:38;16.80;99.90
14993;DHT22;7592;51.088;13.732;2023-06-24T23:11:30;16.80;99.90
14993;DHT22;7592;51.088;13.732;2023-06-24T23:16:23;16.80;99.90
14993;DHT22;7592;51.088;13.732;2023-06-24T23:21:15;16.70;99.90
14993;DHT22;7592;51.088;13.732;2023-06-24T23:26:08;16.60;99.90
14993;DHT22;7592;51.088;13.732;2023-06-24T23:31:05;16.60;99.90
14993;DHT22;7592;51.088;13.732;2023-06-24T23:35:57;16.50;99.90
14993;DHT22;7592;51.088;13.732;2023-06-24T23:40:49;16.50;99.90
14993;DHT22;7592;51.088;13.732;2023-06-24T23:45:47;16.50;99.90
14993;DHT22;7592;51.088;13.732;2023-06-24T23:50:40;16.50;99.90
14993;DHT22;7592;51.088;13.732;2023-06-24T23:55:32;16.50;99.90
